createdAt,value
2018-12-04T00:02:07.878Z,97526.75
2018-12-04T00:04:38.480Z,97538.52
2018-12-04T00:07:09.297Z,97542.47
2018-12-04T00:09:39.979Z,97542.52
2018-12-04T00:12:10.963Z,97547.13
2018-12-04T00:14:41.558Z,97553.09
2018-12-04T00:17:12.425Z,97547.13
2018-12-04T00:19:43.043Z,97546.44
2018-12-04T00:22:20.349Z,97543.13
2018-12-04T00:24:51.164Z,97541.14
2018-12-04T00:27:21.791Z,97542.70
2018-12-04T00:29:52.480Z,97536.98
2018-12-04T00:32:24.013Z,97540.70
2018-12-04T00:34:54.690Z,97543.78
2018-12-04T00:37:25.342Z,97550.59
2018-12-04T00:39:55.939Z,97559.98
2018-12-04T00:42:26.674Z,97561.00
2018-12-04T00:44:57.597Z,97562.55
2018-12-04T00:47:28.867Z,97566.74
2018-12-04T00:49:59.553Z,97570.27
2018-12-04T00:52:30.247Z,97566.26
2018-12-04T00:55:00.862Z,97580.83
2018-12-04T00:57:31.518Z,97570.66
2018-12-04T01:00:02.147Z,97563.86
2018-12-04T01:02:34.298Z,97573.72
2018-12-04T01:05:06.588Z,97580.95
2018-12-04T01:07:37.517Z,97589.14
2018-12-04T01:10:09.407Z,97595.31
2018-12-04T01:12:40.534Z,97595.67
2018-12-04T01:15:11.104Z,97596.48
2018-12-04T01:17:42.618Z,97603.84
2018-12-04T01:20:13.190Z,97607.30
2018-12-04T01:22:43.777Z,97602.89
2018-12-04T01:25:14.789Z,97602.77
2018-12-04T01:27:45.830Z,97611.91
2018-12-04T01:30:17.461Z,97610.13
2018-12-04T01:32:48.058Z,97609.42
2018-12-04T01:35:18.842Z,97613.22
2018-12-04T01:37:49.496Z,97616.20
2018-12-04T01:40:20.073Z,97617.05
2018-12-04T01:42:51.453Z,97617.88
2018-12-04T01:45:22.115Z,97616.11
2018-12-04T01:47:52.729Z,97621.55
2018-12-04T01:50:23.608Z,97617.05
2018-12-04T01:52:54.178Z,97622.85
2018-12-04T01:55:24.770Z,97626.20
2018-12-04T01:57:55.434Z,97626.08
2018-12-04T02:00:26.034Z,97625.95
2018-12-04T02:02:56.602Z,97627.59
2018-12-04T02:05:28.105Z,97630.77
2018-12-04T02:07:58.904Z,97625.55
2018-12-04T02:10:29.557Z,97626.12
2018-12-04T02:13:00.171Z,97634.09
2018-12-04T02:15:30.777Z,97634.81
2018-12-04T02:18:02.155Z,97634.94
2018-12-04T02:20:32.750Z,97641.92
2018-12-04T02:23:03.328Z,97641.80
2018-12-04T02:25:35.076Z,97644.45
2018-12-04T02:28:05.982Z,97648.84
2018-12-04T02:30:37.054Z,97643.14
2018-12-04T02:33:08.199Z,97644.33
2018-12-04T02:35:38.798Z,97645.39
2018-12-04T02:38:09.429Z,97645.39
2018-12-04T02:40:40.024Z,97653.37
2018-12-04T02:43:10.619Z,97650.39
2018-12-04T02:45:41.318Z,97649.20
2018-12-04T02:48:11.966Z,97653.00
2018-12-04T02:50:42.995Z,97658.58
2018-12-04T02:53:14.076Z,97662.86
2018-12-04T02:55:44.920Z,97669.51
2018-12-04T02:58:17.117Z,97665.34
2018-12-04T03:00:47.800Z,97668.20
2018-12-04T03:03:18.655Z,97676.01
2018-12-04T03:05:49.308Z,97682.53
2018-12-04T03:08:20.230Z,97685.77
2018-12-04T03:10:51.038Z,97677.08
2018-12-04T03:13:21.874Z,97686.01
2018-12-04T03:15:52.493Z,97678.63
2018-12-04T03:18:24.076Z,97688.62
2018-12-04T03:20:54.770Z,97686.95
2018-12-04T03:23:25.643Z,97703.34
2018-12-04T03:25:56.434Z,97708.09
2018-12-04T03:28:27.109Z,97703.48
2018-12-04T03:30:59.450Z,97705.72
2018-12-04T03:33:40.208Z,97703.93
2018-12-04T03:36:11.053Z,97706.54
2018-12-04T03:38:42.909Z,97716.17
2018-12-04T03:41:13.633Z,97716.66
2018-12-04T03:43:44.678Z,97709.03
2018-12-04T03:46:15.285Z,97710.83
2018-12-04T03:48:46.154Z,97721.03
2018-12-04T03:51:16.715Z,97722.94
2018-12-04T03:53:47.359Z,97735.88
2018-12-04T03:56:17.965Z,97735.52
2018-12-04T03:58:48.570Z,97742.53
2018-12-04T04:01:19.167Z,97743.59
2018-12-04T04:03:49.793Z,97746.17
2018-12-04T04:06:20.572Z,97743.56
2018-12-04T04:08:51.205Z,97742.49
2018-12-04T04:11:23.275Z,97754.70
2018-12-04T04:13:53.896Z,97765.16
2018-12-04T04:16:24.661Z,97770.23
2018-12-04T04:18:55.751Z,97771.19
2018-12-04T04:21:26.745Z,97775.94
2018-12-04T04:23:57.651Z,97774.97
2018-12-04T04:26:28.372Z,97785.29
2018-12-04T04:28:59.623Z,97788.38
2018-12-04T04:31:30.267Z,97792.55
2018-12-04T04:34:01.947Z,97790.77
2018-12-04T04:36:32.874Z,97795.73
2018-12-04T04:39:05.050Z,97792.78
2018-12-04T04:41:36.832Z,97796.47
2018-12-04T04:44:07.576Z,97794.22
2018-12-04T04:46:38.497Z,97792.42
2018-12-04T04:49:09.066Z,97798.13
2018-12-04T04:51:39.927Z,97800.28
2018-12-04T04:54:12.195Z,97809.16
2018-12-04T04:56:43.091Z,97803.34
2018-12-04T04:59:13.677Z,97809.86
2018-12-04T05:01:44.302Z,97805.12
2018-12-04T05:04:15.097Z,97807.98
2018-12-04T05:06:46.424Z,97816.86
2018-12-04T05:09:17.160Z,97817.57
2018-12-04T05:11:48.346Z,97835.05
2018-12-04T05:14:18.954Z,97828.13
2018-12-04T05:16:49.962Z,97846.85
2018-12-04T05:19:20.619Z,97840.33
2018-12-04T05:21:51.261Z,97852.30
2018-12-04T05:24:21.984Z,97854.06
2018-12-04T05:26:53.126Z,97857.23
2018-12-04T05:29:23.812Z,97857.83
2018-12-04T05:31:54.399Z,97864.09
2018-12-04T05:34:24.975Z,97875.34
2018-12-04T05:36:55.670Z,97878.41
2018-12-04T05:39:28.123Z,97880.78
2018-12-04T05:41:58.767Z,97884.58
2018-12-04T05:44:29.407Z,97898.34
2018-12-04T05:47:00.011Z,97901.77
2018-12-04T05:49:30.614Z,97903.55
2018-12-04T05:52:01.258Z,97913.39
2018-12-04T05:54:32.052Z,97918.39
2018-12-04T05:57:02.635Z,97925.40
2018-12-04T05:59:33.347Z,97923.61
2018-12-04T06:02:03.918Z,97929.09
2018-12-04T06:04:36.059Z,97932.89
2018-12-04T06:07:06.630Z,97934.42
2018-12-04T06:09:37.289Z,97943.00
2018-12-04T06:12:08.396Z,97943.94
2018-12-04T06:14:39.220Z,97948.55
2018-12-04T06:17:10.270Z,97961.33
2018-12-04T06:19:41.622Z,97961.59
2018-12-04T06:22:12.242Z,97965.51
2018-12-04T06:24:43.490Z,97974.20
2018-12-04T06:27:14.077Z,97965.51
2018-12-04T06:29:44.674Z,97973.67
2018-12-04T06:32:15.253Z,97982.69
2018-12-04T06:34:45.878Z,97976.86
2018-12-04T06:37:16.495Z,97980.19
2018-12-04T06:39:47.087Z,97991.45
2018-12-04T06:42:17.678Z,97985.41
2018-12-04T06:44:48.328Z,97991.11
2018-12-04T06:47:19.246Z,98006.28
2018-12-04T06:49:49.842Z,98008.67
2018-12-04T06:52:20.533Z,98008.19
2018-12-04T06:54:51.109Z,98018.67
2018-12-04T06:57:21.675Z,98027.38
2018-12-04T06:59:53.035Z,98031.56
2018-12-04T07:02:23.617Z,98030.52
2018-12-04T07:04:54.189Z,98034.39
2018-12-04T07:07:24.746Z,98044.70
2018-12-04T07:09:55.589Z,98047.97
2018-12-04T07:12:26.249Z,98052.31
2018-12-04T07:14:57.822Z,98062.50
2018-12-04T07:17:28.428Z,98074.34
2018-12-04T07:19:58.989Z,98088.70
2018-12-04T07:22:29.566Z,98097.13
2018-12-04T07:25:00.147Z,98102.94
2018-12-04T07:27:30.750Z,98105.89
2018-12-04T07:30:01.354Z,98105.17
2018-12-04T07:32:32.490Z,98108.60
2018-12-04T07:35:03.081Z,98112.89
2018-12-04T07:37:33.707Z,98124.63
2018-12-04T07:40:05.170Z,98135.84
2018-12-04T07:42:36.955Z,98136.73
2018-12-04T07:45:08.659Z,98140.06
2018-12-04T07:47:39.542Z,98143.66
2018-12-04T07:50:10.777Z,98155.23
2018-12-04T07:52:41.388Z,98158.22
2018-12-04T07:55:11.971Z,98165.84
2018-12-04T07:57:42.883Z,98174.38
2018-12-04T08:00:13.542Z,98182.11
2018-12-04T08:02:44.164Z,98176.89
2018-12-04T08:05:14.742Z,98183.89
2018-12-04T08:07:45.344Z,98182.86
2018-12-04T08:10:15.941Z,98182.27
2018-12-04T08:12:46.513Z,98179.56
2018-12-04T08:15:17.168Z,98191.30
2018-12-04T08:17:47.771Z,98199.51
2018-12-04T08:20:18.342Z,98203.21
2018-12-04T08:22:48.925Z,98209.98
2018-12-04T08:25:19.594Z,98204.76
2018-12-04T08:27:50.351Z,98214.06
2018-12-04T08:30:21.606Z,98217.49
2018-12-04T08:32:52.191Z,98218.97
2018-12-04T08:35:23.237Z,98229.00
2018-12-04T08:37:54.095Z,98236.45
2018-12-04T08:40:24.810Z,98239.84
2018-12-04T08:42:55.456Z,98250.08
2018-12-04T08:45:26.071Z,98248.80
2018-12-04T08:47:56.735Z,98247.82
2018-12-04T08:50:28.175Z,98260.33
2018-12-04T08:52:58.745Z,98251.07
2018-12-04T08:55:30.227Z,98261.73
2018-12-04T08:58:00.878Z,98269.56
2018-12-04T09:00:32.344Z,98278.26
2018-12-04T09:03:03.394Z,98280.98
2018-12-04T09:05:34.251Z,98284.80
2018-12-04T09:08:09.308Z,98289.54
2018-12-04T09:10:37.563Z,98300.56
2018-12-04T09:13:08.247Z,98305.30
2018-12-04T09:15:39.281Z,98310.91
2018-12-04T09:18:09.951Z,98318.88
2018-12-04T09:20:40.866Z,98319.13
2018-12-04T09:23:12.685Z,98326.16
2018-12-04T09:25:44.045Z,98333.92
2018-12-04T09:28:15.260Z,98334.03
2018-12-04T09:30:46.193Z,98330.11
2018-12-04T09:33:17.612Z,98335.39
2018-12-04T09:35:48.445Z,98344.04
2018-12-04T09:38:19.299Z,98339.24
2018-12-04T09:40:50.493Z,98344.98
2018-12-04T09:43:21.871Z,98352.53
2018-12-04T09:45:52.590Z,98352.08
2018-12-04T09:48:23.194Z,98355.39
2018-12-04T09:50:53.858Z,98365.78
2018-12-04T09:53:25.432Z,98361.14
2018-12-04T09:55:56.610Z,98370.19
2018-12-04T09:58:28.239Z,98379.23
2018-12-04T10:00:58.846Z,98378.75
2018-12-04T10:03:29.417Z,98382.35
2018-12-04T10:06:00.081Z,98375.09
2018-12-04T10:08:30.658Z,98380.88
2018-12-04T10:11:01.378Z,98381.83
2018-12-04T10:13:32.095Z,98377.08
2018-12-04T10:16:02.941Z,98386.70
2018-12-04T10:18:33.542Z,98383.98
2018-12-04T10:21:04.808Z,98391.70
2018-12-04T10:23:35.426Z,98398.20
2018-12-04T10:26:06.502Z,98405.55
2018-12-04T10:28:37.879Z,98405.72
2018-12-04T10:31:11.531Z,98403.53
2018-12-04T10:33:42.654Z,98399.33
2018-12-04T10:36:13.254Z,98395.63
2018-12-04T10:38:43.851Z,98409.77
2018-12-04T10:41:14.426Z,98407.64
2018-12-04T10:43:45.345Z,98398.95
2018-12-04T10:46:15.934Z,98407.92
2018-12-04T10:48:46.848Z,98397.77
2018-12-04T10:51:17.458Z,98406.33
2018-12-04T10:53:48.078Z,98412.48
2018-12-04T10:56:19.118Z,98413.57
2018-12-04T10:58:49.841Z,98413.52
2018-12-04T11:04:13.869Z,98421.10
2018-12-04T11:06:44.466Z,98422.78
2018-12-04T11:09:15.129Z,98425.39
2018-12-04T11:11:45.706Z,98433.33
2018-12-04T11:14:16.305Z,98433.80
2018-12-04T11:16:46.872Z,98434.73
2018-12-04T11:19:19.363Z,98437.52
2018-12-04T11:21:50.247Z,98447.58
2018-12-04T11:24:22.130Z,98455.43
2018-12-04T11:26:59.362Z,98461.13
2018-12-04T11:29:30.090Z,98468.19
2018-12-04T11:32:00.698Z,98465.39
2018-12-04T11:34:31.346Z,98472.58
2018-12-04T11:37:01.951Z,98477.80
2018-12-04T11:39:32.534Z,98477.36
2018-12-04T11:42:03.158Z,98478.77
2018-12-04T11:44:33.743Z,98492.73
2018-12-04T11:47:04.359Z,98493.20
2018-12-04T11:49:34.937Z,98497.21
2018-12-04T11:52:06.043Z,98499.06
2018-12-04T11:54:36.661Z,98502.34
2018-12-04T11:57:07.783Z,98508.47
2018-12-04T11:59:38.604Z,98506.41
2018-12-04T12:02:10.915Z,98514.23
2018-12-04T12:04:41.785Z,98513.22
2018-12-04T12:07:14.121Z,98510.80
2018-12-04T12:09:44.931Z,98516.55
2018-12-04T12:12:15.523Z,98529.31
2018-12-04T12:14:46.345Z,98533.98
2018-12-04T12:17:23.606Z,98533.45
2018-12-04T12:19:54.198Z,98531.95
2018-12-04T12:22:24.866Z,98537.64
2018-12-04T12:24:55.697Z,98538.66
2018-12-04T12:27:26.298Z,98542.48
2018-12-04T12:29:56.943Z,98538.28
2018-12-04T12:32:27.558Z,98543.12
2018-12-04T12:34:58.149Z,98548.15
2018-12-04T12:37:28.922Z,98552.64
2018-12-04T12:39:59.483Z,98563.43
2018-12-04T12:42:30.251Z,98562.28
2018-12-04T12:45:00.885Z,98571.52
2018-12-04T12:47:31.536Z,98567.70
2018-12-04T12:50:02.689Z,98573.11
2018-12-04T12:52:33.398Z,98574.41
2018-12-04T12:55:04.803Z,98587.08
2018-12-04T12:57:36.611Z,98583.55
2018-12-04T13:00:09.619Z,98589.23
2018-12-04T13:02:41.490Z,98592.80
2018-12-04T13:05:13.470Z,98595.85
2018-12-04T13:07:51.035Z,98591.09
2018-12-04T13:10:21.623Z,98596.61
2018-12-04T13:12:52.311Z,98590.81
2018-12-04T13:15:22.900Z,98587.67
2018-12-04T13:17:53.550Z,98596.41
2018-12-04T13:20:24.419Z,98593.70
2018-12-04T13:22:55.226Z,98600.13
2018-12-04T13:25:26.892Z,98605.34
2018-12-04T13:27:57.510Z,98605.81
2018-12-04T13:30:28.151Z,98615.23
2018-12-04T13:32:58.987Z,98610.19
2018-12-04T13:35:29.729Z,98601.42
2018-12-04T13:38:00.342Z,98596.20
2018-12-04T13:40:30.989Z,98598.55
2018-12-04T13:43:01.904Z,98600.52
2018-12-04T13:45:32.539Z,98610.58
2018-12-04T13:48:03.129Z,98608.33
2018-12-04T13:50:34.429Z,98606.56
2018-12-04T13:53:05.034Z,98621.02
2018-12-04T13:55:35.636Z,98622.97
2018-12-04T13:58:06.252Z,98620.65
2018-12-04T14:00:37.170Z,98629.59
2018-12-04T14:03:07.808Z,98635.35
2018-12-04T14:05:38.625Z,98633.51
2018-12-04T14:08:09.209Z,98644.87
2018-12-04T14:10:39.890Z,98649.35
2018-12-04T14:13:10.770Z,98660.27
2018-12-04T14:15:42.076Z,98649.34
2018-12-04T14:18:12.979Z,98640.94
2018-12-04T14:20:43.665Z,98643.64
2018-12-04T14:23:14.321Z,98659.08
2018-12-04T14:25:45.151Z,98661.22
2018-12-04T14:28:15.823Z,98662.55
2018-12-04T14:30:46.700Z,98656.30
2018-12-04T14:33:17.731Z,98661.98
2018-12-04T14:35:49.311Z,98661.13
2018-12-04T14:38:19.923Z,98669.40
2018-12-04T14:40:52.686Z,98658.58
2018-12-04T14:43:23.543Z,98664.06
2018-12-04T14:45:55.266Z,98672.80
2018-12-04T14:48:26.169Z,98677.45
2018-12-04T14:50:56.782Z,98694.30
2018-12-04T14:53:27.679Z,98710.23
2018-12-04T14:55:58.470Z,98722.18
2018-12-04T14:58:29.288Z,98720.10
2018-12-04T15:01:00.369Z,98725.70
2018-12-04T15:03:31.239Z,98728.87
2018-12-04T15:06:02.173Z,98730.42
2018-12-04T15:08:33.017Z,98728.98
2018-12-04T15:11:05.224Z,98731.33
2018-12-04T15:13:35.811Z,98748.86
2018-12-04T15:16:06.868Z,98751.22
2018-12-04T15:18:37.737Z,98753.47
2018-12-04T15:21:08.693Z,98756.16
2018-12-04T15:23:39.529Z,98759.67
2018-12-04T15:26:10.557Z,98754.69
2018-12-04T15:28:41.986Z,98760.97
2018-12-04T15:31:12.651Z,98772.22
2018-12-04T15:33:43.344Z,98782.56
2018-12-04T15:36:14.169Z,98790.93
2018-12-04T15:38:45.002Z,98797.58
2018-12-04T15:41:15.947Z,98802.98
2018-12-04T15:43:46.883Z,98806.59
2018-12-04T15:46:17.737Z,98807.16
2018-12-04T15:48:48.388Z,98805.77
2018-12-04T15:51:19.213Z,98808.29
2018-12-04T15:53:49.821Z,98810.34
2018-12-04T15:56:20.999Z,98809.03
2018-12-04T15:58:51.633Z,98807.29
2018-12-04T16:01:22.226Z,98812.42
2018-12-04T16:03:52.908Z,98819.30
2018-12-04T16:06:23.535Z,98825.28
2018-12-04T16:08:54.149Z,98829.94
2018-12-04T16:11:24.886Z,98835.90
2018-12-04T16:13:55.556Z,98832.21
2018-12-04T16:16:26.479Z,98834.73
2018-12-04T16:18:57.098Z,98832.60
2018-12-04T16:21:27.934Z,98836.59
2018-12-04T16:23:58.558Z,98843.03
2018-12-04T16:26:29.214Z,98848.59
2018-12-04T16:29:00.449Z,98847.69
2018-12-04T16:31:31.041Z,98845.52
2018-12-04T16:34:01.731Z,98844.50
2018-12-04T16:36:33.356Z,98852.48
2018-12-04T16:39:07.074Z,98859.99
2018-12-04T16:41:38.265Z,98864.81
2018-12-04T16:44:09.707Z,98874.41
2018-12-04T16:46:40.449Z,98876.42
2018-12-04T16:49:11.364Z,98881.72
2018-12-04T16:51:42.389Z,98889.23
2018-12-04T16:54:13.002Z,98887.97
2018-12-04T16:56:43.911Z,98885.91
2018-12-04T16:59:14.694Z,98891.56
2018-12-04T17:01:45.370Z,98888.05
2018-12-04T17:04:17.079Z,98886.23
2018-12-04T17:06:47.894Z,98895.28
2018-12-04T17:09:18.748Z,98898.16
2018-12-04T17:11:49.541Z,98897.42
2018-12-04T17:14:20.166Z,98904.95
2018-12-04T17:16:50.919Z,98903.89
2018-12-04T17:19:22.399Z,98906.81
2018-12-04T17:21:53.144Z,98912.48
2018-12-04T17:24:25.474Z,98906.29
2018-12-04T17:26:56.079Z,98919.70
2018-12-04T17:29:27.984Z,98918.84
2018-12-04T17:31:58.988Z,98931.70
2018-12-04T17:34:29.742Z,98932.88
2018-12-04T17:37:01.150Z,98932.41
2018-12-04T17:39:32.950Z,98938.16
2018-12-04T17:42:03.555Z,98943.67
2018-12-04T17:44:40.232Z,98952.25
2018-12-04T17:47:07.317Z,98953.31
2018-12-04T17:49:37.925Z,98957.84
2018-12-04T17:52:08.550Z,98953.22
2018-12-04T17:54:39.130Z,98957.58
2018-12-04T17:57:09.712Z,98957.34
2018-12-04T17:59:42.418Z,98955.57
2018-12-04T18:02:14.119Z,98952.11
2018-12-04T18:04:44.704Z,98957.13
2018-12-04T18:07:17.033Z,98958.97
2018-12-04T18:12:26.508Z,98965.36
2018-12-04T18:14:59.519Z,98968.43
2018-12-04T18:17:30.419Z,98969.95
2018-12-04T18:20:01.098Z,98968.25
2018-12-04T18:22:32.286Z,98973.52
2018-12-04T18:25:03.170Z,98967.56
2018-12-04T18:27:33.788Z,98972.07
2018-12-04T18:30:05.953Z,98966.41
2018-12-04T18:32:36.781Z,98962.08
2018-12-04T18:35:08.845Z,98960.73
2018-12-04T18:37:39.466Z,98964.14
2018-12-04T18:40:11.201Z,98974.16
2018-12-04T18:42:41.988Z,98978.66
2018-12-04T18:45:13.603Z,98978.03
2018-12-04T18:47:44.998Z,98980.63
2018-12-04T18:50:16.523Z,98981.86
2018-12-04T18:52:47.146Z,98983.66
2018-12-04T18:55:22.686Z,98989.86
2018-12-04T18:57:54.274Z,98997.72
2018-12-04T19:00:25.386Z,99006.35
2018-12-04T19:02:59.801Z,99002.05
2018-12-04T19:05:30.427Z,98996.36
2018-12-04T19:08:01.053Z,99000.92
2018-12-04T19:10:34.396Z,99001.56
2018-12-04T19:13:05.079Z,99003.63
2018-12-04T19:15:36.275Z,99009.48
2018-12-04T19:18:06.954Z,99014.48
2018-12-04T19:20:37.546Z,99021.70
2018-12-04T19:23:08.525Z,99020.06
2018-12-04T19:25:39.106Z,99034.01
2018-12-04T19:28:10.542Z,99032.41
2018-12-04T19:30:41.270Z,99031.23
2018-12-04T19:33:11.850Z,99031.23
2018-12-04T19:35:42.458Z,99032.47
2018-12-04T19:38:13.143Z,99033.56
2018-12-04T19:40:44.495Z,99039.94
2018-12-04T19:43:15.238Z,99032.92
2018-12-04T19:45:45.980Z,99035.70
2018-12-04T19:48:16.997Z,99031.60
2018-12-04T19:50:47.917Z,99033.55
2018-12-04T19:53:18.700Z,99034.45
2018-12-04T19:55:49.330Z,99027.78
2018-12-04T19:58:21.655Z,99020.55
2018-12-04T20:00:53.095Z,99022.90
2018-12-04T20:03:23.868Z,99025.22
2018-12-04T20:05:54.699Z,99021.97
2018-12-04T20:11:17.291Z,99039.67
2018-12-04T20:13:47.891Z,99035.47
2018-12-04T20:16:18.602Z,99032.25
2018-12-04T20:18:49.454Z,99035.09
2018-12-04T20:21:20.152Z,99036.39
2018-12-04T20:23:50.763Z,99036.93
2018-12-04T20:26:21.511Z,99044.75
2018-12-04T20:28:52.169Z,99046.22
2018-12-04T20:31:24.075Z,99050.28
2018-12-04T20:33:55.101Z,99051.81
2018-12-04T20:36:25.829Z,99048.94
2018-12-04T20:38:57.312Z,99039.86
2018-12-04T20:41:27.983Z,99044.27
2018-12-04T20:43:58.586Z,99048.33
2018-12-04T20:46:29.749Z,99048.79
2018-12-04T20:49:00.851Z,99052.85
2018-12-04T20:51:31.514Z,99051.72
2018-12-04T20:54:02.362Z,99054.78
2018-12-04T20:56:33.296Z,99051.78
2018-12-04T20:59:04.821Z,99053.02
2018-12-04T21:01:36.024Z,99052.12
2018-12-04T21:04:07.638Z,99051.55
2018-12-04T21:06:38.438Z,99060.34
2018-12-04T21:09:09.662Z,99063.48
2018-12-04T21:11:40.833Z,99062.59
2018-12-04T21:14:11.508Z,99068.12
2018-12-04T21:16:43.098Z,99071.89
2018-12-04T21:19:13.721Z,99070.92
2018-12-04T21:21:44.668Z,99074.44
2018-12-04T21:24:15.275Z,99080.97
2018-12-04T21:26:45.931Z,99087.28
2018-12-04T21:29:22.047Z,99093.59
2018-12-04T21:31:58.854Z,99093.07
2018-12-04T21:34:34.738Z,99090.48
2018-12-04T21:37:10.994Z,99092.11
2018-12-04T21:39:44.298Z,99094.56
2018-12-04T21:42:20.032Z,99091.25
2018-12-04T21:44:55.831Z,99095.08
2018-12-04T21:47:31.725Z,99100.61
2018-12-04T21:50:03.336Z,99100.94
2018-12-04T21:52:35.743Z,99106.95
2018-12-04T21:55:07.291Z,99104.23
2018-12-04T21:57:38.535Z,99102.55
2018-12-04T22:00:10.655Z,99105.98
2018-12-04T22:02:41.245Z,99107.38
2018-12-04T22:05:12.517Z,99109.92
2018-12-04T22:07:43.254Z,99115.77
2018-12-04T22:10:14.850Z,99118.31
2018-12-04T22:12:45.753Z,99110.00
2018-12-04T22:15:17.405Z,99116.96
2018-12-04T22:17:47.980Z,99117.67
2018-12-04T22:20:18.885Z,99123.01
2018-12-04T22:22:49.540Z,99127.38
2018-12-04T22:25:20.198Z,99134.06
2018-12-04T22:27:52.268Z,99143.31
2018-12-04T22:30:23.530Z,99140.12
2018-12-04T22:32:54.845Z,99128.47
2018-12-04T22:35:25.523Z,99127.05
2018-12-04T22:37:56.175Z,99126.34
2018-12-04T22:40:27.808Z,99129.90
2018-12-04T22:42:58.474Z,99123.07
2018-12-04T22:45:30.436Z,99108.48
2018-12-04T22:48:01.402Z,99111.53
2018-12-04T22:50:32.394Z,99110.84
2018-12-04T22:53:03.443Z,99111.55
2018-12-04T22:55:34.049Z,99117.88
2018-12-04T22:58:04.944Z,99117.83
2018-12-04T23:00:43.562Z,99127.18
2018-12-04T23:03:15.730Z,99131.80
2018-12-04T23:05:46.471Z,99127.41
2018-12-04T23:08:17.470Z,99132.80
2018-12-04T23:10:49.126Z,99134.46
2018-12-04T23:13:20.087Z,99132.28
2018-12-04T23:15:51.378Z,99128.45
2018-12-04T23:18:22.675Z,99129.28
2018-12-04T23:20:53.580Z,99128.66
2018-12-04T23:23:24.444Z,99129.13
2018-12-04T23:25:55.335Z,99123.73
2018-12-04T23:28:26.182Z,99125.45
2018-12-04T23:30:57.169Z,99117.69
2018-12-04T23:33:28.399Z,99114.31
2018-12-04T23:35:58.962Z,99113.12
2018-12-04T23:38:29.798Z,99103.84
2018-12-04T23:41:02.825Z,99103.74
2018-12-04T23:43:34.197Z,99106.23
2018-12-04T23:46:05.045Z,99098.56
2018-12-04T23:48:36.520Z,99095.06
2018-12-04T23:51:07.475Z,99099.76
2018-12-04T23:53:39.382Z,99091.99
2018-12-04T23:56:10.233Z,99092.73
2018-12-04T23:58:41.158Z,99091.38
